Time;durP1;ratioP1;P1;durP2;ratioP2;P2;SDS_P1;SDS_P2;PMS_P1;PMS_P2;Temp;Humidity;BMP_temperature;BMP_pressure;BME280_temperature;BME280_humidity;BME280_pressure;Samples;Min_cycle;Max_cycle;Signal;HPM_P1;HPM_P2
2023/01/01 00:01:28;;;;;;;83.07;42.30;;;9.00;99.90;;;9.60;100.00;98205.34;5038326;28;20564;-78
2023/01/01 00:04:00;;;;;;;68.30;42.33;;;8.90;99.90;;;9.58;100.00;98211.72;5042650;28;20461;-78
2023/01/01 00:06:29;;;;;;;84.90;38.43;;;8.90;99.90;;;9.59;100.00;98215.94;5039865;28;20598;-78
2023/01/01 00:11:42;;;;;;;55.93;34.40;;;8.90;99.90;;;9.55;100.00;98207.66;5006992;28;20464;-78
2023/01/01 00:14:13;;;;;;;51.63;26.67;;;8.80;99.90;;;9.50;100.00;98215.22;5046052;28;20526;-78
2023/01/01 00:16:43;;;;;;;42.43;24.13;;;8.80;99.90;;;9.48;100.00;98208.53;5043853;28;20500;-78
2023/01/01 00:19:13;;;;;;;42.33;21.97;;;8.70;99.90;;;9.48;100.00;98216.38;5045577;28;20465;-78
2023/01/01 00:21:43;;;;;;;32.30;18.53;;;8.80;99.90;;;9.49;100.00;98205.75;5044872;28;20469;-79
2023/01/01 00:24:13;;;;;;;32.77;17.20;;;8.80;99.90;;;9.50;100.00;98210.00;5045249;28;20959;-79
2023/01/01 00:26:43;;;;;;;30.63;15.80;;;8.80;99.90;;;9.50;100.00;98210.00;5046584;28;20453;-79
2023/01/01 00:29:14;;;;;;;25.60;13.17;;;8.70;99.90;;;9.44;100.00;98205.47;5045222;28;20980;-79
2023/01/01 00:31:44;;;;;;;25.77;12.97;;;8.70;99.90;;;9.46;100.00;98207.91;5045657;28;21000;-78
2023/01/01 00:34:14;;;;;;;17.60;10.63;;;8.80;99.90;;;9.43;100.00;98201.25;5044195;28;20565;-79
2023/01/01 00:36:44;;;;;;;18.50;10.37;;;8.70;99.90;;;9.42;100.00;98202.22;5041992;28;20506;-79
2023/01/01 00:39:14;;;;;;;16.83;8.60;;;8.70;99.90;;;9.43;100.00;98211.69;5041205;28;20458;-78
2023/01/01 00:41:44;;;;;;;19.70;9.57;;;8.70;99.90;;;9.43;100.00;98209.09;5037892;28;20485;-79
2023/01/01 00:44:16;;;;;;;19.33;9.50;;;8.70;99.90;;;9.42;100.00;98212.66;5041185;28;20537;-79
2023/01/01 00:46:45;;;;;;;14.07;8.27;;;8.70;99.90;;;9.41;100.00;98210.22;5043490;28;20460;-79
2023/01/01 00:49:15;;;;;;;21.40;10.07;;;8.70;99.90;;;9.39;100.00;98196.53;5042193;28;20456;-79
2023/01/01 00:51:45;;;;;;;21.33;11.03;;;8.60;99.90;;;9.38;100.00;98200.94;5041557;28;21014;-79
2023/01/01 00:54:14;;;;;;;17.10;10.83;;;8.60;99.90;;;9.37;100.00;98201.16;5044829;28;20486;-79
2023/01/01 00:56:44;;;;;;;15.93;10.00;;;8.60;99.90;;;9.37;100.00;98201.16;5048780;28;20468;-78
2023/01/01 00:59:15;;;;;;;19.10;10.70;;;8.60;99.90;;;9.32;100.00;98186.00;5043299;28;20467;-79
2023/01/01 01:01:44;;;;;;;25.43;12.30;;;8.60;99.90;;;9.31;100.00;98189.59;5047319;28;20476;-78
2023/01/01 01:04:15;;;;;;;16.37;10.63;;;8.60;99.90;;;9.31;100.00;98192.19;5050290;28;20898;-79
2023/01/01 01:06:44;;;;;;;17.70;10.83;;;8.60;99.90;;;9.30;100.00;98185.34;5045843;28;20454;-78
2023/01/01 01:09:14;;;;;;;26.10;12.40;;;8.60;99.90;;;9.30;100.00;98179.34;5050180;28;20465;-78
2023/01/01 01:11:44;;;;;;;22.77;12.37;;;8.60;99.90;;;9.26;100.00;98173.66;5048951;28;20464;-79
2023/01/01 01:14:15;;;;;;;20.20;11.80;;;8.50;99.90;;;9.25;100.00;98172.03;5046540;28;20580;-79
2023/01/01 01:16:46;;;;;;;27.27;13.17;;;8.50;99.90;;;9.19;100.00;98179.75;5044459;28;20486;-78
2023/01/01 01:19:18;;;;;;;23.80;13.20;;;8.50;99.90;;;9.18;100.00;98178.13;5046319;28;20919;-78
2023/01/01 01:21:47;;;;;;;24.20;11.83;;;8.50;99.90;;;9.20;100.00;98171.72;5046042;28;20466;-78
2023/01/01 01:24:17;;;;;;;20.10;12.80;;;8.60;99.90;;;9.20;100.00;98166.50;5054051;28;20458;-78
2023/01/01 01:26:47;;;;;;;23.90;12.37;;;8.60;99.90;;;9.20;100.00;98176.94;5048894;28;20501;-81
2023/01/01 01:29:18;;;;;;;26.03;13.63;;;8.60;99.90;;;9.20;100.00;98179.56;5048910;28;20464;-79
2023/01/01 01:31:47;;;;;;;27.73;13.53;;;8.50;99.90;;;9.23;100.00;98188.84;5041538;28;20473;-79
2023/01/01 01:34:18;;;;;;;29.23;13.30;;;8.50;99.90;;;9.27;100.00;98179.66;5047969;28;20501;-79
2023/01/01 01:36:56;;;;;;;22.87;12.83;;;8.70;99.90;;;9.29;100.00;98188.16;5045687;28;20472;-79
2023/01/01 01:39:25;;;;;;;31.23;15.00;;;8.70;99.90;;;9.27;100.00;98195.31;5044540;28;20876;-79
2023/01/01 01:41:55;;;;;;;22.70;14.70;;;8.60;99.90;;;9.26;100.00;98197.16;5048173;28;20467;-78
2023/01/01 01:44:56;;;;;;;24.43;14.07;;;8.60;99.90;;;9.24;100.00;98193.88;5044008;28;20580;-78
2023/01/01 01:47:33;;;;;;;32.83;14.00;;;8.60;99.90;;;9.24;100.00;98201.72;5047329;28;20513;-79
2023/01/01 01:50:11;;;;;;;24.20;14.90;;;8.60;99.90;;;9.21;100.00;98209.06;5047110;28;20461;-79
2023/01/01 01:52:52;;;;;;;22.63;14.00;;;8.50;99.90;;;9.20;100.00;98213.47;5045620;28;20456;-79
2023/01/01 01:55:23;;;;;;;20.80;13.60;;;8.50;99.90;;;9.17;100.00;98213.81;5050097;28;20480;-79
2023/01/01 01:57:53;;;;;;;26.03;14.00;;;8.50;99.90;;;9.16;100.00;98217.44;5048010;28;20469;-78
2023/01/01 02:00:24;;;;;;;19.47;11.77;;;8.50;99.90;;;9.17;100.00;98226.88;5049064;28;20462;-78
2023/01/01 02:03:02;;;;;;;18.97;12.47;;;8.50;99.90;;;9.13;100.00;98222.19;5051101;28;20523;-78
2023/01/01 02:05:32;;;;;;;21.70;12.07;;;8.40;99.90;;;9.11;100.00;98224.97;5051441;28;21502;-79
2023/01/01 02:08:05;;;;;;;22.40;12.40;;;8.50;99.90;;;9.11;100.00;98235.41;5050360;28;20536;-79
2023/01/01 02:10:36;;;;;;;19.67;11.13;;;8.40;99.90;;;9.09;100.00;98226.94;5047556;28;20461;-79
2023/01/01 02:13:05;;;;;;;17.07;11.47;;;8.40;99.90;;;9.09;100.00;98234.78;5049622;28;20571;-79
2023/01/01 02:15:44;;;;;;;18.07;10.83;;;8.40;99.90;;;9.09;100.00;98237.38;5047780;28;20551;-79
2023/01/01 02:18:21;;;;;;;22.47;12.23;;;8.40;99.90;;;9.10;100.00;98228.56;5047560;28;20493;-78
2023/01/01 02:20:59;;;;;;;23.47;12.23;;;8.40;99.90;;;9.07;100.00;98228.91;5049637;28;20891;-79
2023/01/01 02:24:30;;;;;;;24.60;12.73;;;8.40;99.90;;;9.04;100.00;98229.25;5051393;28;21027;-79
2023/01/01 02:27:10;;;;;;;24.20;11.77;;;8.40;99.90;;;9.03;100.00;98235.44;5046060;28;20607;-79
2023/01/01 02:29:46;;;;;;;16.60;11.00;;;8.30;99.90;;;8.98;100.00;98232.56;5046849;28;20457;-78
2023/01/01 02:32:26;;;;;;;19.93;11.23;;;8.30;99.90;;;8.98;100.00;98237.78;5046568;28;20467;-78
2023/01/01 02:35:33;;;;;;;19.57;12.30;;;8.30;99.90;;;8.96;100.00;98237.09;5045327;28;20536;-78
2023/01/01 02:38:01;;;;;;;27.70;12.73;;;8.20;99.90;;;8.93;100.00;98227.84;5044617;28;20500;-79
2023/01/01 02:40:31;;;;;;;21.63;11.30;;;8.20;99.90;;;8.93;100.00;98229.63;5045909;28;20978;-78
2023/01/01 02:43:03;;;;;;;22.87;12.00;;;8.20;99.90;;;8.92;100.00;98233.25;5048942;28;20457;-78
2023/01/01 02:45:34;;;;;;;18.80;12.40;;;8.20;99.90;;;8.91;100.00;98232.44;5045010;28;20600;-78
2023/01/01 02:48:41;;;;;;;24.50;12.77;;;8.20;99.90;;;8.87;100.00;98232.94;5047356;28;20971;-78
2023/01/01 02:51:29;;;;;;;23.20;10.70;;;8.10;99.90;;;8.89;100.00;98230.97;5047493;28;20553;-78
2023/01/01 02:54:11;;;;;;;22.43;11.03;;;8.20;99.90;;;8.89;100.00;98231.78;5041826;28;20495;-78
2023/01/01 02:56:48;;;;;;;24.20;11.50;;;8.20;99.90;;;8.82;100.00;98230.03;5047111;28;20487;-79
2023/01/01 03:02:26;;;;;;;23.30;8.10;;;8.10;99.90;;;8.80;100.00;98232.00;5048233;28;20846;-79
2023/01/01 03:05:08;;;;;;;23.07;9.40;;;8.10;99.90;;;8.80;100.00;98225.00;5043841;28;20459;-81
2023/01/01 03:07:57;;;;;;;15.73;8.83;;;8.10;99.90;;;8.82;100.00;98222.19;5050820;28;20466;-79
2023/01/01 03:10:39;;;;;;;11.33;8.20;;;8.10;99.90;;;8.78;100.00;98229.53;5049320;28;20515;-79
2023/01/01 03:13:19;;;;;;;25.03;7.27;;;8.10;99.90;;;8.76;100.00;98226.31;5050966;28;20516;-79
2023/01/01 03:15:59;;;;;;;14.03;7.80;;;8.10;99.90;;;8.74;100.00;98230.06;5050100;28;20535;-78
2023/01/01 03:18:40;;;;;;;9.13;5.80;;;8.10;99.90;;;8.71;100.00;98238.25;5049438;28;20564;-78
2023/01/01 03:21:13;;;;;;;10.93;6.43;;;8.10;99.90;;;8.68;100.00;98234.16;5045340;28;21071;-79
2023/01/01 03:23:53;;;;;;;10.43;6.10;;;8.00;99.90;;;8.66;100.00;98240.53;5048564;28;20484;-78
2023/01/01 03:26:27;;;;;;;9.77;5.50;;;7.90;99.90;;;8.65;100.00;98237.13;5043961;28;20461;-79
2023/01/01 03:29:02;;;;;;;9.93;4.97;;;8.00;99.90;;;8.67;100.00;98237.78;5046737;28;20489;-79
2023/01/01 03:31:33;;;;;;;12.47;5.03;;;8.00;99.90;;;8.64;100.00;98243.34;5049018;28;20457;-79
2023/01/01 03:34:13;;;;;;;8.00;5.13;;;7.90;99.90;;;8.65;100.00;98244.94;5046859;28;20456;-79
2023/01/01 03:36:49;;;;;;;10.10;4.70;;;7.90;99.90;;;8.66;100.00;98237.94;5046115;28;20543;-79
2023/01/01 03:39:24;;;;;;;9.07;4.90;;;7.90;99.90;;;8.65;100.00;98236.28;5045763;28;20460;-79
2023/01/01 03:42:11;;;;;;;6.93;4.40;;;8.00;99.90;;;8.65;100.00;98237.13;5044540;28;20465;-79
2023/01/01 03:44:47;;;;;;;9.80;4.10;;;8.00;99.90;;;8.64;100.00;98226.88;5045137;28;20958;-78
2023/01/01 03:47:18;;;;;;;4.97;3.77;;;8.00;99.90;;;8.62;100.00;98224.41;5047773;28;20555;-79
2023/01/01 03:49:49;;;;;;;11.87;4.33;;;8.00;99.90;;;8.58;100.00;98223.13;5044196;28;20591;-78
2023/01/01 03:52:41;;;;;;;5.60;3.63;;;8.00;99.90;;;8.57;100.00;98226.75;5047125;28;20489;-78
2023/01/01 03:55:24;;;;;;;6.53;3.63;;;8.00;99.90;;;8.55;100.00;98232.09;5047813;28;21015;-78
2023/01/01 03:58:04;;;;;;;7.03;3.70;;;7.90;99.90;;;8.56;100.00;98233.75;5045763;28;20464;-79
2023/01/01 04:00:38;;;;;;;7.50;3.83;;;7.90;99.90;;;8.55;100.00;98245.16;5044690;28;20466;-79
2023/01/01 04:03:17;;;;;;;5.87;3.37;;;7.90;99.90;;;8.54;100.00;98245.28;5049918;28;20476;-79
2023/01/01 04:05:49;;;;;;;5.87;3.40;;;7.90;99.90;;;8.53;100.00;98246.31;5043084;28;20465;-79
2023/01/01 04:08:18;;;;;;;5.17;2.77;;;7.80;99.90;;;8.47;100.00;98252.16;5046604;28;20466;-79
2023/01/01 04:10:55;;;;;;;7.63;3.33;;;7.70;99.90;;;8.49;100.00;98238.00;5043804;28;21055;-79
2023/01/01 04:13:25;;;;;;;5.10;3.10;;;7.80;99.90;;;8.52;100.00;98244.66;5050684;28;20620;-79
2023/01/01 04:15:55;;;;;;;17.77;3.20;;;7.90;99.90;;;8.47;100.00;98252.97;5046007;28;20518;-79
2023/01/01 04:18:25;;;;;;;4.50;2.73;;;7.80;99.90;;;8.48;100.00;98244.19;5044236;28;20527;-78
2023/01/01 04:20:57;;;;;;;3.97;2.97;;;7.80;99.90;;;8.48;100.00;98254.63;5044849;28;20466;-78
2023/01/01 04:23:28;;;;;;;6.90;3.10;;;7.80;99.90;;;8.46;100.00;98255.78;5040509;28;20563;-78
2023/01/01 04:25:58;;;;;;;5.17;3.00;;;7.70;99.90;;;8.47;100.00;98255.59;5042936;28;21201;-79
2023/01/01 04:28:29;;;;;;;5.17;3.03;;;7.70;99.90;;;8.47;100.00;98263.41;5042717;28;20538;-79
2023/01/01 04:31:01;;;;;;;5.90;3.10;;;7.80;99.90;;;8.47;100.00;98273.81;5042800;28;20898;-78
2023/01/01 04:33:32;;;;;;;5.60;2.90;;;7.70;99.90;;;8.50;100.00;98270.09;5046574;28;20469;-79
2023/01/01 04:36:07;;;;;;;5.93;2.83;;;7.80;99.90;;;8.49;100.00;98274.50;5045890;28;20543;-79
2023/01/01 04:38:37;;;;;;;5.17;2.77;;;7.80;99.90;;;8.48;100.00;98274.66;5040027;28;20460;-78
2023/01/01 04:41:09;;;;;;;3.20;2.70;;;7.80;99.90;;;8.48;100.00;98274.66;5042481;28;20540;-79
2023/01/01 04:43:40;;;;;;;5.00;2.80;;;7.80;99.90;;;8.49;100.00;98273.69;5040499;28;20466;-78
2023/01/01 04:46:10;;;;;;;6.10;3.20;;;7.80;99.90;;;8.46;100.00;98281.84;5044485;28;20472;-79
2023/01/01 04:48:40;;;;;;;13.63;3.40;;;7.80;99.90;;;8.45;100.00;98280.19;5044625;28;20496;-78
2023/01/01 04:51:13;;;;;;;4.67;3.10;;;7.80;99.90;;;8.42;100.00;98275.31;5043323;28;20978;-78
2023/01/01 04:53:43;;;;;;;4.60;3.17;;;7.70;99.90;;;8.41;100.00;98276.28;5045925;28;20469;-79
2023/01/01 04:56:16;;;;;;;4.90;3.13;;;7.70;99.90;;;8.38;100.00;98280.06;5043685;28;20521;-78
2023/01/01 04:58:47;;;;;;;4.30;2.53;;;7.80;99.90;;;8.37;100.00;98278.41;5043856;28;20518;-79
2023/01/01 05:01:19;;;;;;;12.43;3.70;;;7.70;99.90;;;8.36;100.00;98281.22;5043296;28;20523;-78
2023/01/01 05:03:49;;;;;;;4.60;2.87;;;7.70;99.90;;;8.35;100.00;98287.41;5047958;28;20466;-79
2023/01/01 05:06:21;;;;;;;2.70;2.50;;;7.70;99.90;;;8.35;100.00;98293.41;5048254;28;20461;-78
2023/01/01 05:08:54;;;;;;;4.60;3.30;;;7.70;99.90;;;8.36;100.00;98297.66;5043744;28;20461;-79
2023/01/01 05:11:27;;;;;;;6.03;4.30;;;7.70;99.90;;;8.33;100.00;98295.38;5042178;28;20620;-78
2023/01/01 05:13:58;;;;;;;5.60;3.30;;;7.70;99.90;;;8.33;100.00;98297.97;5046617;28;21014;-78
2023/01/01 05:16:34;;;;;;;6.97;3.70;;;7.70;99.90;;;8.32;100.00;98298.97;5041071;28;20487;-78
2023/01/01 05:19:06;;;;;;;6.70;3.00;;;7.70;99.90;;;8.30;100.00;98282.69;5042449;28;20522;-79
2023/01/01 05:21:40;;;;;;;5.80;3.10;;;7.70;99.90;;;8.30;100.00;98281.84;5046174;28;20500;-78
2023/01/01 05:24:12;;;;;;;6.07;3.30;;;7.60;99.90;;;8.32;100.00;98279.91;5043920;28;20456;-78
2023/01/01 05:26:46;;;;;;;72.83;25.20;;;7.60;99.90;;;8.29;100.00;98293.28;5042977;28;20477;-77
2023/01/01 05:29:15;;;;;;;6.47;4.10;;;7.60;99.90;;;8.27;100.00;98300.41;5040894;28;20461;-79
2023/01/01 05:31:46;;;;;;;4.10;3.40;;;7.50;99.90;;;8.25;100.00;98299.75;5040608;28;20467;-79
2023/01/01 05:34:14;;;;;;;8.00;2.87;;;7.50;99.90;;;8.27;100.00;98303.81;5042618;28;20510;-79
2023/01/01 05:36:46;;;;;;;7.43;3.50;;;7.60;99.90;;;8.27;100.00;98306.44;5033591;28;20503;-78
2023/01/01 05:39:17;;;;;;;10.10;6.07;;;7.60;99.90;;;8.28;100.00;98305.47;5045406;28;20492;-78
2023/01/01 05:41:46;;;;;;;6.73;3.17;;;7.60;99.90;;;8.27;100.00;98313.44;5042536;28;20473;-78
2023/01/01 05:44:18;;;;;;;8.03;2.50;;;7.60;99.90;;;8.26;100.00;98306.59;5043259;28;20476;-74
2023/01/01 05:46:47;;;;;;;11.37;6.37;;;7.50;99.90;;;8.25;100.00;98313.59;5041659;28;20528;-78
2023/01/01 05:49:18;;;;;;;6.60;3.00;;;7.50;99.90;;;8.24;100.00;98318.97;5045906;28;20548;-78
2023/01/01 05:51:49;;;;;;;4.03;2.33;;;7.60;99.90;;;8.26;100.00;98307.41;5044171;28;20468;-79
2023/01/01 05:54:19;;;;;;;6.40;3.00;;;7.50;99.90;;;8.26;100.00;98310.00;5045405;28;20577;-78
2023/01/01 05:56:50;;;;;;;4.00;2.80;;;7.50;99.90;;;8.27;100.00;98310.81;5045595;28;20493;-78
2023/01/01 05:59:21;;;;;;;4.63;2.70;;;7.50;99.90;;;8.26;100.00;98315.22;5044651;28;20466;-78
2023/01/01 06:01:51;;;;;;;6.20;2.50;;;7.60;99.90;;;8.25;100.00;98318.81;5045234;28;20497;-77
2023/01/01 06:04:22;;;;;;;8.03;4.20;;;7.50;99.90;;;8.22;100.00;98318.34;5046577;28;20552;-74
2023/01/01 06:06:53;;;;;;;10.17;4.77;;;7.50;99.90;;;8.21;100.00;98333.16;5048577;28;20901;-77
2023/01/01 06:09:23;;;;;;;9.77;4.23;;;7.50;99.90;;;8.21;100.00;98340.97;5046445;28;20456;-78
2023/01/01 06:11:54;;;;;;;5.50;3.23;;;7.50;99.90;;;8.20;100.00;98335.91;5047403;28;20922;-78
2023/01/01 06:14:25;;;;;;;6.47;3.13;;;7.50;99.90;;;8.21;100.00;98340.97;5043703;28;20465;-78
2023/01/01 06:16:56;;;;;;;5.67;3.13;;;7.60;99.90;;;8.20;100.00;98343.72;5042167;28;20571;-78
2023/01/01 06:19:26;;;;;;;5.27;3.30;;;7.50;99.90;;;8.19;100.00;98340.28;5047757;28;20453;-78
2023/01/01 06:21:57;;;;;;;8.87;3.03;;;7.60;99.90;;;8.18;100.00;98341.28;5046503;28;20456;-78
2023/01/01 06:24:27;;;;;;;6.33;3.47;;;7.50;99.90;;;8.17;100.00;98350.06;5043465;28;20464;-78
2023/01/01 06:27:07;;;;;;;5.67;2.73;;;7.50;99.90;;;8.19;100.00;98350.72;5043444;28;20512;-78
2023/01/01 06:29:39;;;;;;;8.30;3.20;;;7.50;99.90;;;8.20;100.00;98349.75;5043366;28;20448;-78
2023/01/01 06:32:10;;;;;;;7.00;2.70;;;7.50;99.90;;;8.18;100.00;98341.28;5043665;28;20527;-78
2023/01/01 06:34:40;;;;;;;3.63;2.73;;;7.50;99.90;;;8.16;100.00;98348.44;5043806;28;20460;-78
2023/01/01 06:37:13;;;;;;;7.80;2.80;;;7.60;99.90;;;8.16;100.00;98343.22;5043313;28;20519;-78
2023/01/01 06:39:42;;;;;;;16.23;2.53;;;7.50;99.90;;;8.16;100.00;98342.44;5043212;28;20588;-78
2023/01/01 06:42:12;;;;;;;4.37;2.50;;;7.50;99.90;;;8.19;100.00;98323.88;5046235;28;20461;-78
2023/01/01 06:44:41;;;;;;;4.70;2.87;;;7.50;99.90;;;8.16;100.00;98322.38;5046993;28;20465;-78
2023/01/01 06:47:11;;;;;;;6.40;3.23;;;7.50;99.90;;;8.15;100.00;98315.56;5047643;28;20555;-78
2023/01/01 06:49:41;;;;;;;8.37;5.40;;;7.50;99.90;;;8.16;100.00;98332.81;5047391;28;20521;-78
2023/01/01 06:52:13;;;;;;;6.40;2.93;;;7.50;99.90;;;8.17;100.00;98331.84;5043120;28;21287;-78
2023/01/01 06:54:44;;;;;;;11.23;2.93;;;7.50;99.90;;;8.18;100.00;98330.06;5047963;28;20496;-78
2023/01/01 06:57:15;;;;;;;3.80;2.93;;;7.60;99.90;;;8.16;100.00;98343.22;5045944;28;20473;-78
2023/01/01 06:59:47;;;;;;;6.27;3.60;;;7.60;99.90;;;8.18;100.00;98348.28;5045924;28;20477;-78
2023/01/01 07:02:18;;;;;;;4.67;2.80;;;7.60;99.90;;;8.15;100.00;98354.66;5045877;28;20469;-78
2023/01/01 07:04:49;;;;;;;3.80;2.80;;;7.50;99.90;;;8.18;100.00;98359.53;5042981;28;20461;-78
2023/01/01 07:07:22;;;;;;;3.90;2.80;;;7.60;99.90;;;8.17;100.00;98364.88;5042740;28;21001;-78
2023/01/01 07:09:51;;;;;;;7.03;2.73;;;7.50;99.90;;;8.18;100.00;98372.53;5046930;28;20519;-78
2023/01/01 07:12:25;;;;;;;4.80;3.20;;;7.60;99.90;;;8.16;100.00;98379.69;5038220;28;20496;-78
2023/01/01 07:14:56;;;;;;;5.30;2.60;;;7.50;99.90;;;8.15;100.00;98372.88;5034256;28;20597;-78
2023/01/01 07:17:27;;;;;;;6.87;3.77;;;7.50;99.90;;;8.17;100.00;98360.50;5029473;28;20492;-79
2023/01/01 07:19:58;;;;;;;10.23;6.23;;;7.60;99.90;;;8.16;100.00;98369.28;5037072;28;20551;-79
2023/01/01 07:22:30;;;;;;;4.30;2.90;;;7.50;99.90;;;8.18;100.00;98372.53;5036561;28;20484;-78
2023/01/01 07:25:01;;;;;;;4.67;2.50;;;7.50;99.90;;;8.19;100.00;98363.72;5034392;28;20567;-78
2023/01/01 07:27:31;;;;;;;3.20;2.33;;;7.60;99.90;;;8.17;100.00;98357.88;5032194;28;20541;-79
2023/01/01 07:30:02;;;;;;;4.97;2.80;;;7.60;99.90;;;8.18;100.00;98366.53;5036383;28;20486;-79
2023/01/01 07:32:32;;;;;;;6.97;2.77;;;7.60;99.90;;;8.18;100.00;98377.75;5034887;28;20486;-78
2023/01/01 07:35:01;;;;;;;6.17;2.80;;;7.60;99.90;;;8.19;100.00;98375.97;5034530;28;20484;-78
2023/01/01 07:37:33;;;;;;;3.50;2.50;;;7.60;99.90;;;8.17;100.00;98399.56;5035664;28;20535;-78
2023/01/01 07:40:06;;;;;;;5.60;3.03;;;7.60;99.90;;;8.20;100.00;98395.81;5034109;28;20491;-78
2023/01/01 07:42:37;;;;;;;8.10;3.00;;;7.60;99.90;;;8.21;100.00;98389.63;5035676;28;20893;-78
2023/01/01 07:45:11;;;;;;;4.13;2.60;;;7.60;99.90;;;8.19;100.00;98395.00;5032690;28;20487;-79
2023/01/01 07:47:41;;;;;;;3.27;2.83;;;7.60;99.90;;;8.17;100.00;98386.53;5033802;28;20527;-78
2023/01/01 07:50:17;;;;;;;5.20;2.77;;;7.50;99.90;;;8.18;100.00;98393.38;5033965;28;21139;-78
2023/01/01 07:52:49;;;;;;;6.10;2.90;;;7.50;99.90;;;8.17;100.00;98391.75;5035177;28;20867;-78
2023/01/01 07:55:21;;;;;;;7.40;3.10;;;7.50;99.90;;;8.18;100.00;98388.19;5036712;28;20535;-78
2023/01/01 07:57:50;;;;;;;8.13;2.53;;;7.60;99.90;;;8.19;100.00;98395.00;5038334;28;20601;-79
2023/01/01 08:00:23;;;;;;;14.00;3.23;;;7.60;99.90;;;8.19;100.00;98392.38;5034821;28;20486;-79
2023/01/01 08:02:52;;;;;;;9.70;3.57;;;7.60;99.90;;;8.21;100.00;98387.03;5034395;28;20995;-78
2023/01/01 08:05:23;;;;;;;4.07;2.90;;;7.60;99.90;;;8.21;100.00;98398.25;5038230;28;20483;-78
2023/01/01 08:07:58;;;;;;;8.30;3.00;;;7.60;99.90;;;8.23;100.00;98403.28;5042469;28;20956;-79
2023/01/01 08:10:27;;;;;;;4.63;3.00;;;7.60;99.90;;;8.23;100.00;98408.50;5045945;28;20898;-78
2023/01/01 08:13:00;;;;;;;4.00;3.07;;;7.60;99.90;;;8.28;100.00;98409.69;5040240;28;20488;-79
2023/01/01 08:15:31;;;;;;;5.20;2.73;;;7.60;99.90;;;8.30;100.00;98412.94;5046867;28;20465;-79
2023/01/01 08:18:02;;;;;;;4.20;3.00;;;7.70;99.90;;;8.33;100.00;98423.03;5038979;28;20481;-81
2023/01/01 08:20:33;;;;;;;6.80;3.57;;;7.70;99.90;;;8.37;100.00;98420.91;5037364;28;20489;-79
2023/01/01 08:23:06;;;;;;;9.60;4.63;;;7.70;99.90;;;8.40;100.00;98418.78;5041382;28;20559;-80
2023/01/01 08:25:37;;;;;;;7.20;3.77;;;7.80;99.90;;;8.43;100.00;98413.28;5044697;28;20466;-80
2023/01/01 08:28:08;;;;;;;4.47;3.07;;;7.90;99.90;;;8.48;100.00;98415.38;5042173;28;21081;-80
2023/01/01 08:30:37;;;;;;;9.57;2.87;;;7.90;99.90;;;8.50;100.00;98424.66;5047370;28;20468;-80
2023/01/01 08:33:08;;;;;;;7.90;2.87;;;7.90;99.90;;;8.53;100.00;98423.53;5046431;28;20464;-80
2023/01/01 08:35:41;;;;;;;4.40;2.67;;;7.90;99.90;;;8.55;100.00;98422.38;5045017;28;20504;-80
2023/01/01 08:38:13;;;;;;;19.73;3.93;;;8.00;99.90;;;8.62;100.00;98426.91;5043803;28;20499;-81
2023/01/01 08:40:43;;;;;;;5.43;3.00;;;8.10;99.90;;;8.69;100.00;98435.72;5047282;28;20504;-80
2023/01/01 08:43:13;;;;;;;4.93;3.10;;;8.10;99.90;;;8.73;100.00;98444.84;5044063;28;20461;-80
2023/01/01 08:45:44;;;;;;;5.63;3.07;;;8.20;99.90;;;8.81;100.00;98443.03;5042442;28;20461;-81
2023/01/01 08:48:15;;;;;;;3.47;2.50;;;8.30;99.90;;;8.90;100.00;98456.84;5040661;28;20465;-81
2023/01/01 08:50:51;;;;;;;6.67;2.53;;;8.40;99.90;;;8.97;100.00;98463.84;5045320;28;20465;-80
2023/01/01 08:53:23;;;;;;;6.93;3.63;;;8.50;99.90;;;9.05;100.00;98453.41;5045183;28;20987;-80
2023/01/01 08:56:02;;;;;;;5.67;3.00;;;8.50;99.90;;;9.15;100.00;98460.22;5044717;28;21572;-80
2023/01/01 08:58:33;;;;;;;13.17;3.37;;;8.60;99.90;;;9.28;100.00;98447.44;5046055;28;21010;-80
2023/01/01 09:01:03;;;;;;;8.87;2.77;;;8.80;99.90;;;9.35;100.00;98451.84;5042975;28;20473;-81
2023/01/01 09:03:32;;;;;;;10.13;3.20;;;8.90;99.90;;;9.49;100.00;98440.69;5040078;28;20545;-80
2023/01/01 09:06:01;;;;;;;6.80;3.37;;;9.10;99.90;;;9.57;100.00;98445.06;5044714;28;20476;-81
2023/01/01 09:08:32;;;;;;;4.87;2.97;;;9.10;99.90;;;9.65;100.00;98441.59;5042216;28;20469;-81
2023/01/01 09:11:03;;;;;;;5.63;2.60;;;9.20;99.90;;;9.72;100.00;98437.31;5043000;28;20559;-80
2023/01/01 09:13:34;;;;;;;7.10;2.63;;;9.20;99.90;;;9.83;100.00;98434.28;5046044;28;20465;-80
2023/01/01 09:16:05;;;;;;;9.10;3.10;;;9.50;99.90;;;9.91;100.00;98442.91;5045712;28;20457;-81
2023/01/01 09:18:35;;;;;;;6.47;2.97;;;9.50;99.90;;;10.00;100.00;98443.66;5045953;28;21162;-81
2023/01/01 09:21:06;;;;;;;3.47;2.27;;;9.60;99.90;;;10.06;100.00;98440.38;5052234;28;20482;-80
2023/01/01 09:23:37;;;;;;;5.77;3.13;;;9.60;99.90;;;10.23;100.00;98434.06;5051817;28;20489;-80
2023/01/01 09:26:07;;;;;;;5.03;2.20;;;9.90;99.90;;;10.31;100.00;98438.44;5048957;28;20543;-80
2023/01/01 09:28:38;;;;;;;9.87;3.57;;;10.00;99.90;;;10.41;100.00;98442.41;5049206;28;20503;-81
2023/01/01 09:31:08;;;;;;;9.13;2.50;;;10.10;99.90;;;10.50;100.00;98445.78;5046649;28;20492;-80
2023/01/01 09:33:39;;;;;;;5.30;2.53;;;10.10;99.90;;;10.65;100.00;98440.59;5047969;28;20460;-81
2023/01/01 09:36:27;;;;;;;3.00;2.10;;;10.30;99.90;;;10.75;100.00;98448.97;5047119;28;20473;-81
2023/01/01 09:38:59;;;;;;;4.63;2.60;;;10.40;99.90;;;10.81;100.00;98456.94;5046224;28;20491;-80
2023/01/01 09:42:00;;;;;;;3.93;2.23;;;10.50;99.90;;;10.94;100.00;98451.88;5046678;28;20560;-80
2023/01/01 09:45:01;;;;;;;11.10;2.73;;;10.60;99.90;;;11.02;100.00;98443.97;5042252;28;20459;-81
2023/01/01 09:47:37;;;;;;;13.30;4.93;;;10.70;99.90;;;11.08;100.00;98450.28;5042758;28;20479;-84
2023/01/01 09:50:13;;;;;;;6.37;3.37;;;10.70;99.90;;;11.14;100.00;98454.00;5042950;28;20556;-80
2023/01/01 09:52:50;;;;;;;6.27;2.63;;;10.80;99.90;;;11.23;100.00;98460.75;5048277;28;21354;-80
2023/01/01 09:55:29;;;;;;;5.93;2.37;;;10.90;99.90;;;11.27;100.00;98470.69;5044656;28;20483;-80
2023/01/01 09:57:59;;;;;;;3.50;2.00;;;11.00;99.90;;;11.32;100.00;98457.03;5052165;28;20563;-80
2023/01/01 10:00:33;;;;;;;6.93;2.40;;;11.00;99.90;;;11.38;100.00;98467.63;5044271;28;21068;-80
2023/01/01 10:03:20;;;;;;;2.00;1.80;;;11.10;99.90;;;11.42;100.00;98466.25;5044539;28;21045;-79
2023/01/01 10:06:00;;;;;;;7.90;2.10;;;11.20;99.90;;;11.47;100.00;98456.03;5044546;28;20469;-80
2023/01/01 10:08:48;;;;;;;3.27;2.50;;;11.20;99.90;;;11.52;100.00;98450.28;5044552;28;20465;-80
2023/01/01 10:11:31;;;;;;;7.80;2.13;;;11.30;99.90;;;11.54;100.00;98440.41;5047291;28;20488;-80
2023/01/01 10:14:08;;;;;;;9.80;2.03;;;11.20;99.90;;;11.57;100.00;98443.47;5047347;28;20961;-80
2023/01/01 10:16:45;;;;;;;7.00;2.47;;;11.20;99.90;;;11.61;100.00;98446.53;5046042;28;20533;-81
2023/01/01 10:19:35;;;;;;;5.73;2.47;;;11.30;99.90;;;11.67;100.00;98458.06;5048117;28;20516;-80
2023/01/01 10:22:15;;;;;;;4.47;2.70;;;11.30;99.90;;;11.73;100.00;98455.56;5045009;28;20507;-79
2023/01/01 10:24:49;;;;;;;11.20;3.00;;;11.40;99.90;;;11.78;100.00;98452.41;5046491;28;20991;-79
2023/01/01 10:27:32;;;;;;;4.83;2.23;;;11.40;99.90;;;11.84;100.00;98454.28;5043928;28;20470;-79
2023/01/01 10:30:04;;;;;;;7.73;2.30;;;11.50;99.90;;;11.88;100.00;98450.28;5046867;28;20460;-79
2023/01/01 10:32:37;;;;;;;9.80;2.80;;;11.50;99.90;;;11.95;100.00;98448.56;5046932;28;20499;-79
2023/01/01 10:35:14;;;;;;;8.27;2.30;;;11.70;99.90;;;12.01;100.00;98445.19;5043436;28;20476;-78
2023/01/01 10:37:45;;;;;;;28.93;14.00;;;11.70;99.90;;;12.05;100.00;98451.69;5047134;28;20460;-80
2023/01/01 10:40:19;;;;;;;4.80;2.23;;;11.80;99.90;;;12.11;100.00;98448.34;5044226;28;20503;-78
2023/01/01 10:42:53;;;;;;;11.73;3.90;;;11.80;99.90;;;12.15;100.00;98454.81;5046722;28;20466;-79
2023/01/01 10:45:32;;;;;;;8.27;2.50;;;11.80;99.90;;;12.15;100.00;98452.19;5042195;28;20474;-78
2023/01/01 10:48:15;;;;;;;7.33;2.73;;;11.70;99.90;;;12.15;100.00;98452.19;5044717;28;20958;-79
2023/01/01 10:50:48;;;;;;;7.57;2.50;;;11.70;99.90;;;12.19;100.00;98437.72;5048792;28;20551;-79
2023/01/01 10:53:32;;;;;;;6.53;2.33;;;11.80;99.90;;;12.21;100.00;98440.97;5046669;28;20460;-79